This is the latest recevied weather packets stored in our database for station/object KG4GJX. If no packets are shown the sender has not sent any weather packets the latest 1 day(s).
| Time | Temp. | Humidity | Pressure | Rain* | Wind** | Luminosity | Snow |
|---|---|---|---|---|---|---|---|
| 1836274085 | 17.78° C | 100% | 1017.9 hPa | 0 mm | 0 m/s | - | - |
| 1778033913 | 21.11° C | 54% | 1011.5 hPa | 0 mm | 1.34 m/s, 232° | - | - |
| 1778033250 | 21.11° C | 54% | 1011.1 hPa | 0 mm | 0.89 m/s, 145° | - | - |
| 1778032588 | 20.56° C | 56% | 1011.1 hPa | 0 mm | 0 m/s | - | - |
| 1778031925 | 20.56° C | 56% | 1011.1 hPa | 0 mm | 0.89 m/s, 204° | - | - |
| 1778031263 | 20.56° C | 56% | 1010.8 hPa | 0 mm | 0.89 m/s, 176° | - | - |
| 1778030600 | 20.56° C | 57% | 1010.8 hPa | 0 mm | 0 m/s | - | - |
| 1778029938 | 20.56° C | 56% | 1010.8 hPa | 0 mm | 0.89 m/s, 173° | - | - |
| 1778029275 | 20.56° C | 56% | 1010.8 hPa | 0 mm | 0 m/s | - | - |
| 1778028613 | 20.56° C | 55% | 1010.8 hPa | 0 mm | 0.45 m/s, 192° | - | - |
| 1778027950 | 20.56° C | 55% | 1010.8 hPa | 0 mm | 0.45 m/s, 138° | - | - |
| 1778027288 | 21.11° C | 54% | 1010.8 hPa | 0 mm | 0 m/s | - | - |
| 1778026626 | 21.11° C | 53% | 1010.8 hPa | 0 mm | 0 m/s | - | - |
| 1778025963 | 21.67° C | 52% | 1011.1 hPa | 0 mm | 0 m/s | - | - |
| 1778025300 | 21.67° C | 50% | 1011.1 hPa | 0 mm | 1.34 m/s, 194° | - | - |
| 1778024638 | 22.22° C | 50% | 1011.1 hPa | 0 mm | 0 m/s | - | - |
| 1778023975 | 22.22° C | 49% | 1011.1 hPa | 0 mm | 0 m/s | - | - |
| 1778023313 | 22.78° C | 48% | 1010.8 hPa | 0 mm | 1.79 m/s, 202° | - | - |
| 1778022650 | 22.78° C | 48% | 1010.8 hPa | 0 mm | 0.45 m/s, 177° | - | - |
| 1778021988 | 22.78° C | 46% | 1010.8 hPa | 0 mm | 1.34 m/s, 159° | - | - |
| 1778021326 | 23.33° C | 45% | 1010.8 hPa | 0 mm | 1.79 m/s, 118° | - | - |
| 1778020663 | 23.33° C | 44% | 1010.8 hPa | 0 mm | 1.34 m/s, 196° | - | - |
| 1778020001 | 23.89° C | 44% | 1010.8 hPa | 0 mm | 0.45 m/s, 160° | - | - |
| 1778019338 | 24.44° C | 42% | 1010.8 hPa | 0 mm | 2.24 m/s, 147° | - | - |
| 1778018676 | 24.44° C | 43% | 1010.8 hPa | 0 mm | 2.24 m/s, 91° | - | - |
* Rain latest hour (hover to see other rain measurements)
** Current wind speed in m/s (hover to see current wind gust speed)